createdAt,value
2024-02-26T00:02:16.389Z,101312.95
2024-02-26T00:05:05.392Z,101314.55
2024-02-26T00:08:06.478Z,101314.36
2024-02-26T00:11:07.449Z,101312.42
2024-02-26T00:14:08.460Z,101307.79
2024-02-26T00:17:09.446Z,101299.73
2024-02-26T00:20:12.444Z,101304.33
2024-02-26T00:23:13.394Z,101301.61
2024-02-26T00:26:14.416Z,101305.59
2024-02-26T00:29:15.454Z,101301.18
2024-02-26T00:32:16.451Z,101295.73
2024-02-26T00:35:17.495Z,101293.72
2024-02-26T00:38:18.460Z,101293.64
2024-02-26T00:41:19.482Z,101297.35
2024-02-26T00:44:20.467Z,101286.55
2024-02-26T00:47:21.557Z,101290.14
2024-02-26T00:50:22.528Z,101280.98
2024-02-26T00:53:23.508Z,101282.77
2024-02-26T00:56:24.553Z,101278.95
2024-02-26T00:59:25.640Z,101280.81
2024-02-26T01:02:26.595Z,101275.48
2024-02-26T01:05:28.556Z,101274.16
2024-02-26T01:08:29.557Z,101270.77
2024-02-26T01:11:30.605Z,101273.16
2024-02-26T01:14:31.543Z,101271.92
2024-02-26T01:17:32.499Z,101278.17
2024-02-26T01:20:33.595Z,101275.14
2024-02-26T01:23:34.575Z,101278.55
2024-02-26T01:26:35.553Z,101278.99
2024-02-26T01:29:36.696Z,101274.33
2024-02-26T01:32:37.678Z,101268.63
2024-02-26T01:35:38.636Z,101266.14
2024-02-26T01:38:39.644Z,101259.28
2024-02-26T01:41:41.830Z,101261.67
2024-02-26T01:44:42.654Z,101253.06
2024-02-26T01:47:46.959Z,101247.15
2024-02-26T01:50:49.672Z,101251.36
2024-02-26T01:53:50.636Z,101249.98
2024-02-26T01:56:54.746Z,101246.70
2024-02-26T01:59:56.712Z,101245.77
2024-02-26T02:03:00.698Z,101248.02
2024-02-26T02:06:02.056Z,101243.64
2024-02-26T02:09:02.718Z,101243.78
2024-02-26T02:12:03.805Z,101238.79
2024-02-26T02:15:04.721Z,101236.01
2024-02-26T02:18:05.880Z,101231.55
2024-02-26T02:21:08.703Z,101226.42
2024-02-26T04:54:04.099Z,101309.39
2024-02-26T04:57:05.000Z,101299.46
2024-02-26T05:00:06.020Z,101300.13
2024-02-26T05:03:07.049Z,101297.81
2024-02-26T05:06:08.083Z,101296.81
2024-02-26T05:09:09.031Z,101297.19
2024-02-26T05:12:10.016Z,101293.17
2024-02-26T05:15:11.090Z,101290.38
2024-02-26T05:18:12.076Z,101287.58
2024-02-26T05:21:13.054Z,101282.48
2024-02-26T05:24:14.112Z,101272.20
2024-02-26T05:27:15.074Z,101265.73
2024-02-26T05:30:17.172Z,101256.20
2024-02-26T05:33:19.097Z,101253.14
2024-02-26T05:36:20.138Z,101255.03
2024-02-26T05:39:21.440Z,101250.45
2024-02-26T05:42:22.062Z,101258.29
2024-02-26T05:45:23.171Z,101255.41
2024-02-26T05:48:26.187Z,101248.20
2024-02-26T05:51:27.217Z,101253.36
2024-02-26T05:54:28.273Z,101249.21
2024-02-26T05:57:29.162Z,101245.94
2024-02-26T06:00:30.276Z,101244.63
2024-02-26T06:03:32.277Z,101241.40
2024-02-26T06:06:34.364Z,101237.16
2024-02-26T06:09:37.114Z,101236.50
2024-02-26T06:12:39.134Z,101239.42
2024-02-26T06:15:40.126Z,101236.02
2024-02-26T06:18:41.598Z,101236.42
2024-02-26T06:21:43.141Z,101235.42
2024-02-26T06:24:44.167Z,101242.02
2024-02-26T06:27:45.203Z,101244.20
2024-02-26T06:30:46.244Z,101245.47
2024-02-26T06:33:47.328Z,101242.86
2024-02-26T06:36:48.186Z,101247.31
2024-02-26T06:39:50.192Z,101248.69
2024-02-26T06:42:52.187Z,101248.70
2024-02-26T06:45:53.158Z,101243.15
2024-02-26T06:48:56.000Z,101243.35
2024-02-26T06:51:57.212Z,101236.55
2024-02-26T06:54:59.225Z,101237.83
2024-02-26T06:58:00.409Z,101237.50
2024-02-26T07:01:01.335Z,101238.91
2024-02-26T07:04:02.309Z,101245.73
2024-02-26T07:07:03.379Z,101240.63
2024-02-26T07:10:04.333Z,101237.95
2024-02-26T07:13:05.223Z,101235.08
2024-02-26T07:16:06.308Z,101237.73
2024-02-26T07:19:07.414Z,101238.30
2024-02-26T07:22:11.381Z,101240.81
2024-02-26T07:25:12.279Z,101244.59
2024-02-26T07:28:13.322Z,101243.20
2024-02-26T07:31:14.273Z,101247.09
2024-02-26T07:34:15.496Z,101248.17
2024-02-26T07:37:16.328Z,101247.54
2024-02-26T07:40:18.303Z,101245.98
2024-02-26T07:43:19.304Z,101242.36
2024-02-26T07:46:20.328Z,101239.57
2024-02-26T07:49:21.509Z,101242.70
2024-02-26T07:52:22.276Z,101233.51
2024-02-26T07:55:23.417Z,101227.78
2024-02-26T07:58:24.337Z,101222.44
2024-02-26T08:01:28.398Z,101219.90
2024-02-26T08:04:29.447Z,101219.55
2024-02-26T08:07:30.399Z,101214.05
2024-02-26T08:10:33.551Z,101212.41
2024-02-26T08:13:34.332Z,101217.61
2024-02-26T08:16:37.221Z,101214.08
2024-02-26T08:19:38.487Z,101220.07
2024-02-26T08:22:39.388Z,101220.27
2024-02-26T08:25:40.362Z,101219.14
2024-02-26T08:28:41.378Z,101214.27
2024-02-26T08:31:45.521Z,101217.38
2024-02-26T08:34:46.541Z,101217.52
2024-02-26T08:37:47.428Z,101221.67
2024-02-26T08:40:48.418Z,101222.15
2024-02-26T08:43:49.444Z,101223.76
2024-02-26T08:46:50.399Z,101217.88
2024-02-26T08:49:51.474Z,101211.48
2024-02-26T08:52:56.446Z,101215.83
2024-02-26T08:55:57.456Z,101218.79
2024-02-26T08:59:01.469Z,101220.35
2024-02-26T09:02:02.465Z,101219.44
2024-02-26T09:05:03.496Z,101216.43
2024-02-26T09:08:04.581Z,101205.14
2024-02-26T09:11:05.480Z,101200.07
2024-02-26T09:14:06.493Z,101190.83
2024-02-26T09:17:07.489Z,101177.84
2024-02-26T09:20:08.509Z,101175.19
2024-02-26T09:23:09.522Z,101169.87
2024-02-26T09:26:10.875Z,101168.05
2024-02-26T09:29:11.532Z,101165.70
2024-02-26T09:32:13.619Z,101167.43
2024-02-26T09:35:14.624Z,101158.82
2024-02-26T09:38:15.511Z,101151.83
2024-02-26T09:41:16.560Z,101152.95
2024-02-26T09:44:19.539Z,101159.24
2024-02-26T09:47:24.597Z,101158.11
2024-02-26T09:50:30.537Z,101152.92
2024-02-26T09:53:32.675Z,101154.54
2024-02-26T09:56:34.595Z,101150.85
2024-02-26T09:59:37.622Z,101151.38
2024-02-26T10:02:40.609Z,101145.25
2024-02-26T10:05:41.658Z,101140.00
2024-02-26T10:08:43.705Z,101137.20
2024-02-26T10:11:44.677Z,101129.23
2024-02-26T10:14:45.661Z,101124.22
2024-02-26T10:17:47.665Z,101124.84
2024-02-26T10:20:48.690Z,101119.84
2024-02-26T10:23:49.651Z,101116.60
2024-02-26T10:26:50.668Z,101109.65
2024-02-26T10:29:51.647Z,101104.43
2024-02-26T10:32:53.754Z,101099.45
2024-02-26T10:35:54.673Z,101098.95
2024-02-26T10:38:56.723Z,101099.61
2024-02-26T10:41:59.692Z,101092.29
2024-02-26T10:45:00.742Z,101094.21
2024-02-26T10:48:01.837Z,101083.83
2024-02-26T10:51:03.722Z,101090.79
2024-02-26T10:54:09.722Z,101090.71
2024-02-26T10:57:11.717Z,101093.13
2024-02-26T11:00:14.768Z,101093.95
2024-02-26T11:03:17.748Z,101095.27
2024-02-26T11:06:19.792Z,101093.74
2024-02-26T11:09:22.755Z,101089.33
2024-02-26T11:12:25.790Z,101082.97
2024-02-26T11:15:26.773Z,101077.86
2024-02-26T11:18:29.879Z,101076.33
2024-02-26T11:21:47.729Z,101069.52
2024-02-26T11:24:50.773Z,101068.44
2024-02-26T11:27:57.232Z,101073.67
2024-02-26T11:31:01.783Z,101072.68
2024-02-26T11:34:03.000Z,101064.40
2024-02-26T11:37:03.785Z,101058.08
2024-02-26T11:40:06.902Z,101059.40
2024-02-26T11:43:08.787Z,101058.73
2024-02-26T11:46:10.791Z,101062.94
2024-02-26T11:49:15.007Z,101055.64
2024-02-26T11:52:20.868Z,101054.08
2024-02-26T11:55:21.827Z,101057.21
2024-02-26T11:58:22.815Z,101054.39
2024-02-26T12:01:52.830Z,101058.98
2024-02-26T12:04:53.897Z,101047.00
2024-02-26T12:07:56.831Z,101044.17
2024-02-26T12:10:57.864Z,101046.98
2024-02-26T12:14:03.618Z,101049.14
2024-02-26T12:17:06.917Z,101044.70
2024-02-26T12:20:08.147Z,101045.97
2024-02-26T12:23:08.883Z,101046.66
2024-02-26T12:26:18.898Z,101040.09
2024-02-26T12:29:19.914Z,101047.10
2024-02-26T12:32:20.873Z,101046.44
2024-02-26T12:35:22.088Z,101056.28
2024-02-26T12:38:22.876Z,101051.15
2024-02-26T12:41:23.903Z,101049.56
2024-02-26T12:44:24.889Z,101046.46
2024-02-26T12:47:26.918Z,101047.71
2024-02-26T12:50:28.048Z,101045.83
2024-02-26T12:53:28.927Z,101044.40
2024-02-26T12:56:29.935Z,101045.69
2024-02-26T12:59:30.954Z,101050.41
2024-02-26T13:02:31.965Z,101048.40
2024-02-26T13:05:35.068Z,101056.10
2024-02-26T13:08:35.958Z,101053.00
2024-02-26T13:11:36.979Z,101059.05
2024-02-26T13:14:39.977Z,101062.61
2024-02-26T13:17:41.023Z,101058.73
2024-02-26T13:20:45.001Z,101060.59
2024-02-26T13:23:46.024Z,101065.45
2024-02-26T13:26:47.007Z,101065.39
2024-02-26T13:29:48.017Z,101063.02
2024-02-26T13:32:55.154Z,101060.92
2024-02-26T13:35:56.092Z,101063.46
2024-02-26T13:39:13.057Z,101059.86
2024-02-26T13:42:14.062Z,101054.15
2024-02-26T13:45:15.188Z,101057.56
2024-02-26T13:48:21.227Z,101061.85
2024-02-26T13:51:22.122Z,101064.68
2024-02-26T13:54:23.126Z,101066.11
2024-02-26T13:57:24.128Z,101064.51
2024-02-26T14:00:25.111Z,101072.04
2024-02-26T14:03:27.092Z,101077.48
2024-02-26T14:06:28.186Z,101077.44
2024-02-26T14:09:35.788Z,101083.04
2024-02-26T14:12:45.105Z,101074.35
2024-02-26T14:15:47.182Z,101081.08
2024-02-26T14:18:49.289Z,101082.95
2024-02-26T14:21:50.106Z,101084.25
2024-02-26T14:24:44.107Z,101084.40
2024-02-26T14:27:32.247Z,101089.77
2024-02-26T14:30:33.228Z,101089.61
2024-02-26T14:33:34.669Z,101090.34
2024-02-26T14:36:37.151Z,101091.76
2024-02-26T14:39:39.175Z,101091.22
2024-02-26T14:42:40.180Z,101093.85
2024-02-26T14:45:41.382Z,101093.66
2024-02-26T14:48:42.284Z,101092.02
2024-02-26T14:51:43.149Z,101101.48
2024-02-26T14:54:46.206Z,101099.32
2024-02-26T14:57:47.138Z,101108.30
2024-02-26T15:00:48.282Z,101110.42
2024-02-26T15:03:49.320Z,101109.54
2024-02-26T15:06:53.283Z,101112.42
2024-02-26T15:09:54.186Z,101117.82
2024-02-26T15:12:55.201Z,101120.83
2024-02-26T15:16:03.329Z,101121.64
2024-02-26T15:19:04.311Z,101123.73
2024-02-26T15:22:05.208Z,101124.47
2024-02-26T15:25:06.270Z,101126.46
2024-02-26T15:28:07.197Z,101124.85
2024-02-26T15:31:08.777Z,101125.11
2024-02-26T15:34:10.381Z,101129.77
2024-02-26T15:37:14.030Z,101129.36
2024-02-26T15:40:15.252Z,101132.59
2024-02-26T15:43:16.260Z,101133.17
2024-02-26T15:46:17.295Z,101129.85
2024-02-26T15:49:18.358Z,101138.29
2024-02-26T15:52:19.277Z,101139.24
2024-02-26T15:55:22.359Z,101142.41
2024-02-26T15:58:23.323Z,101142.86
2024-02-26T16:01:26.098Z,101143.88
2024-02-26T16:04:30.382Z,101143.54
2024-02-26T16:07:36.295Z,101139.39
2024-02-26T16:10:38.326Z,101143.58
2024-02-26T16:13:39.319Z,101150.64
2024-02-26T16:16:43.375Z,101146.56
2024-02-26T16:19:44.387Z,101142.34
2024-02-26T16:22:45.348Z,101136.23
2024-02-26T16:25:39.362Z,101136.41
2024-02-26T16:28:29.348Z,101139.25
2024-02-26T16:31:30.968Z,101136.71
2024-02-26T16:34:32.432Z,101141.58
2024-02-26T16:37:35.386Z,101138.80
2024-02-26T16:40:36.387Z,101139.71
2024-02-26T16:43:38.392Z,101142.31
2024-02-26T16:46:39.401Z,101148.86
2024-02-26T16:49:40.497Z,101145.98
2024-02-26T16:52:34.928Z,101150.50
2024-02-26T16:55:35.431Z,101150.80
2024-02-26T16:58:36.417Z,101153.67
2024-02-26T17:01:37.458Z,101147.95
2024-02-26T17:04:38.521Z,101151.59
2024-02-26T17:07:39.418Z,101148.37
2024-02-26T17:10:40.463Z,101152.07
2024-02-26T17:13:41.460Z,101157.20
2024-02-26T17:16:44.422Z,101154.40
2024-02-26T17:19:45.441Z,101154.17
2024-02-26T17:22:39.541Z,101149.75
2024-02-26T17:25:40.455Z,101144.48
2024-02-26T17:28:43.474Z,101143.98
2024-02-26T17:31:49.486Z,101149.70
2024-02-26T17:34:50.578Z,101150.97
2024-02-26T17:37:51.492Z,101156.98
2024-02-26T17:40:52.490Z,101157.80
2024-02-26T17:43:53.491Z,101160.25
2024-02-26T17:46:54.500Z,101159.71
2024-02-26T17:49:55.718Z,101161.28
2024-02-26T17:52:57.576Z,101159.01
2024-02-26T17:55:58.771Z,101154.92
2024-02-26T17:58:59.514Z,101154.27
2024-02-26T18:02:00.598Z,101157.05
2024-02-26T18:05:01.588Z,101161.55
2024-02-26T18:08:02.581Z,101160.98
2024-02-26T18:11:03.618Z,101162.46
2024-02-26T18:14:05.654Z,101159.20
2024-02-26T18:17:06.572Z,101155.48
2024-02-26T18:20:07.715Z,101150.36
2024-02-26T18:23:08.588Z,101153.30
2024-02-26T18:26:11.575Z,101153.70
2024-02-26T18:29:13.620Z,101153.91
2024-02-26T18:32:14.589Z,101151.20
2024-02-26T18:35:15.645Z,101143.47
2024-02-26T18:38:16.600Z,101141.83
2024-02-26T18:41:18.718Z,101139.67
2024-02-26T18:44:19.626Z,101139.98
2024-02-26T18:47:20.649Z,101144.30
2024-02-26T18:50:14.732Z,101146.31
2024-02-26T18:53:09.634Z,101153.65
2024-02-26T18:56:10.659Z,101157.31
2024-02-26T18:59:12.656Z,101157.74
2024-02-26T19:02:13.661Z,101163.90
2024-02-26T19:05:14.644Z,101164.02
2024-02-26T19:08:16.709Z,101161.27
2024-02-26T19:11:22.755Z,101163.42
2024-02-26T19:14:23.692Z,101162.66
2024-02-26T19:17:26.840Z,101163.92
2024-02-26T19:20:27.703Z,101161.45
2024-02-26T19:23:28.690Z,101164.48
2024-02-26T19:26:29.762Z,101166.91
2024-02-26T19:29:30.715Z,101163.41
2024-02-26T19:32:31.737Z,101162.95
2024-02-26T19:35:32.710Z,101158.30
2024-02-26T19:38:33.778Z,101158.56
2024-02-26T19:41:34.714Z,101160.27
2024-02-26T19:44:36.186Z,101161.73
2024-02-26T19:47:36.766Z,101159.48
2024-02-26T19:50:37.791Z,101158.65
2024-02-26T19:53:38.756Z,101151.73
2024-02-26T19:56:41.755Z,101154.49
2024-02-26T19:59:42.773Z,101156.05
2024-02-26T20:02:44.878Z,101151.67
2024-02-26T20:05:45.797Z,101153.66
2024-02-26T20:08:46.779Z,101144.50
2024-02-26T20:11:47.818Z,101136.85
2024-02-26T20:14:48.773Z,101140.77
2024-02-26T20:17:49.852Z,101135.36
2024-02-26T20:20:50.836Z,101135.87
2024-02-26T20:23:52.872Z,101141.01
2024-02-26T20:26:56.904Z,101151.42
2024-02-26T20:29:59.911Z,101151.07
2024-02-26T20:33:01.119Z,101151.77
2024-02-26T20:36:01.869Z,101154.34
2024-02-26T20:39:02.894Z,101156.93
2024-02-26T20:42:03.924Z,101155.79
2024-02-26T20:45:05.912Z,101157.63
2024-02-26T20:48:06.954Z,101166.15
2024-02-26T20:51:07.960Z,101164.57
2024-02-26T20:54:08.873Z,101166.25
2024-02-26T20:57:10.958Z,101171.16
2024-02-26T21:00:13.953Z,101178.61
2024-02-26T21:03:16.988Z,101187.88
2024-02-26T21:06:17.937Z,101188.00
2024-02-26T21:09:18.948Z,101186.95
2024-02-26T21:12:20.080Z,101183.34
2024-02-26T21:15:14.234Z,101184.42
2024-02-26T21:18:15.071Z,101184.55
2024-02-26T21:21:18.959Z,101183.64
2024-02-26T21:24:19.990Z,101184.15
2024-02-26T21:27:21.083Z,101183.90
2024-02-26T21:30:23.017Z,101184.48
2024-02-26T21:33:24.126Z,101178.77
2024-02-26T21:36:25.998Z,101179.95
2024-02-26T21:39:26.991Z,101180.79
2024-02-26T21:42:28.026Z,101178.81
2024-02-26T21:45:22.424Z,101179.98
2024-02-26T21:48:16.035Z,101189.27
2024-02-26T21:51:17.050Z,101185.52
2024-02-26T21:54:18.096Z,101185.61
2024-02-26T21:57:19.085Z,101186.25
2024-02-26T22:00:20.026Z,101188.84
2024-02-26T22:03:21.186Z,101192.20
2024-02-26T22:06:22.091Z,101193.96
2024-02-26T22:09:23.115Z,101196.64
2024-02-26T22:12:25.086Z,101192.35
2024-02-26T22:15:27.077Z,101193.91
2024-02-26T22:18:28.202Z,101198.93
2024-02-26T22:21:29.070Z,101196.88
2024-02-26T22:24:30.099Z,101195.94
2024-02-26T22:27:31.090Z,101184.85
2024-02-26T22:30:32.092Z,101178.37
2024-02-26T22:33:33.259Z,101176.60
2024-02-26T22:36:34.136Z,101178.63
2024-02-26T22:39:35.211Z,101181.64
2024-02-26T22:42:36.273Z,101179.91
2024-02-26T22:45:37.164Z,101187.20
2024-02-26T22:48:39.332Z,101184.65
2024-02-26T22:51:40.155Z,101185.67
2024-02-26T22:54:41.177Z,101181.96
2024-02-26T22:57:42.191Z,101186.70
2024-02-26T23:00:43.277Z,101186.71
2024-02-26T23:03:44.152Z,101190.77
2024-02-26T23:06:45.307Z,101193.00
2024-02-26T23:09:46.150Z,101194.58
2024-02-26T23:12:47.131Z,101196.27
2024-02-26T23:15:48.223Z,101199.46
2024-02-26T23:18:49.253Z,101199.88
2024-02-26T23:21:50.183Z,101203.80
2024-02-26T23:24:51.176Z,101202.52
2024-02-26T23:27:52.197Z,101201.43
2024-02-26T23:30:53.184Z,101200.97
2024-02-26T23:33:54.409Z,101201.48
2024-02-26T23:36:55.197Z,101195.45
2024-02-26T23:39:56.241Z,101196.40
2024-02-26T23:42:58.299Z,101188.42
2024-02-26T23:45:59.228Z,101190.86
2024-02-26T23:49:00.259Z,101188.77
2024-02-26T23:52:01.262Z,101199.81
2024-02-26T23:55:02.236Z,101197.90
2024-02-26T23:58:03.246Z,101202.30
